Time;durP1;ratioP1;P1;durP2;ratioP2;P2;SDS_P1;SDS_P2;PMS_P1;PMS_P2;Temp;Humidity;BMP_temperature;BMP_pressure;BME280_temperature;BME280_humidity;BME280_pressure;Samples;Min_cycle;Max_cycle;Signal;HPM_P1;HPM_P2
2023/08/05 00:02:06;;;;;;;8.63;4.35;;;14.80;66.00;;;;;;5071990;28;20029;-79
2023/08/05 00:04:33;;;;;;;8.15;3.88;;;14.80;65.90;;;;;;5077507;28;20471;-80
2023/08/05 00:07:01;;;;;;;7.57;4.18;;;14.90;65.90;;;;;;5078961;28;20048;-85
2023/08/05 00:09:28;;;;;;;10.65;4.15;;;14.90;66.20;;;;;;5071317;28;20607;-78
2023/08/05 00:11:55;;;;;;;9.60;4.28;;;14.90;65.60;;;;;;5057510;28;20029;-79
2023/08/05 00:14:23;;;;;;;6.65;3.95;;;15.00;65.50;;;;;;5059169;28;20028;-79
2023/08/05 00:16:50;;;;;;;5.20;3.75;;;15.10;65.40;;;;;;5054937;28;20186;-79
2023/08/05 00:19:17;;;;;;;7.97;3.47;;;15.10;65.30;;;;;;5059017;28;20170;-79
2023/08/05 00:21:45;;;;;;;11.43;4.32;;;15.10;65.20;;;;;;5059285;28;20025;-80
2023/08/05 00:24:13;;;;;;;8.63;4.07;;;15.20;65.10;;;;;;5055125;28;20033;-81
2023/08/05 00:26:40;;;;;;;7.75;4.30;;;15.20;64.70;;;;;;5074194;28;20017;-81
2023/08/05 00:29:07;;;;;;;6.88;3.83;;;15.30;64.70;;;;;;5060330;28;20033;-80
2023/08/05 00:31:35;;;;;;;7.03;3.67;;;15.30;64.80;;;;;;5056536;28;20036;-79
2023/08/05 00:34:02;;;;;;;5.38;3.80;;;15.30;64.80;;;;;;5055937;28;20095;-77
2023/08/05 00:36:30;;;;;;;5.72;3.30;;;15.30;64.80;;;;;;5056850;28;20082;-78
2023/08/05 00:38:59;;;;;;;7.68;3.78;;;15.30;64.70;;;;;;5056391;28;20039;-79
2023/08/05 00:41:26;;;;;;;11.15;3.72;;;15.40;64.80;;;;;;5054637;28;20033;-78
2023/08/05 00:43:54;;;;;;;8.57;3.63;;;15.50;64.70;;;;;;5055428;28;20052;-85
2023/08/05 00:46:23;;;;;;;6.63;3.45;;;15.50;64.50;;;;;;5053982;28;20068;-78
2023/08/05 00:48:52;;;;;;;6.78;3.55;;;15.60;64.50;;;;;;5057201;28;20029;-79
2023/08/05 00:51:21;;;;;;;7.20;3.72;;;15.60;64.00;;;;;;5057114;28;20025;-94
2023/08/05 00:53:49;;;;;;;6.88;4.78;;;15.70;64.10;;;;;;5055006;28;20025;-94
2023/08/05 00:56:17;;;;;;;10.95;4.10;;;15.70;64.10;;;;;;5059945;28;20039;-80
2023/08/05 00:58:45;;;;;;;7.45;3.63;;;15.80;63.60;;;;;;5056453;28;20025;-79
2023/08/05 01:01:12;;;;;;;10.05;4.32;;;15.80;63.50;;;;;;5058699;28;20034;-79
2023/08/05 01:03:40;;;;;;;20.83;4.40;;;15.90;63.10;;;;;;5066012;28;20562;-80
2023/08/05 01:06:08;;;;;;;6.88;3.83;;;16.00;63.00;;;;;;5076606;28;20407;-81
2023/08/05 01:08:36;;;;;;;8.05;4.18;;;16.10;62.80;;;;;;5055028;28;20027;-79
2023/08/05 01:11:04;;;;;;;11.00;4.38;;;16.10;62.50;;;;;;5054742;28;20047;-78
2023/08/05 01:13:35;;;;;;;5.43;4.00;;;16.20;62.40;;;;;;5060604;28;20017;-77
2023/08/05 01:16:02;;;;;;;7.30;4.10;;;16.20;62.20;;;;;;5053647;28;20061;-77
2023/08/05 01:18:30;;;;;;;6.95;4.18;;;16.20;62.40;;;;;;5053510;28;20052;-76
2023/08/05 01:21:01;;;;;;;8.95;3.90;;;16.30;62.50;;;;;;5060606;28;20029;-77
2023/08/05 01:23:51;;;;;;;6.00;4.28;;;16.30;62.60;;;;;;5054535;28;20021;-76
2023/08/05 01:26:18;;;;;;;7.15;3.50;;;16.30;62.70;;;;;;5055044;28;20487;-77
2023/08/05 01:28:46;;;;;;;9.02;4.45;;;16.40;62.60;;;;;;5055264;28;20036;-83
2023/08/05 01:31:15;;;;;;;8.35;3.95;;;16.40;62.70;;;;;;5052933;28;20068;-76
2023/08/05 01:33:43;;;;;;;4.90;3.58;;;16.40;62.30;;;;;;5053962;28;20044;-77
2023/08/05 01:36:20;;;;;;;10.88;4.65;;;16.50;62.20;;;;;;5053683;28;20025;-77
2023/08/05 01:38:48;;;;;;;9.05;4.20;;;16.50;62.40;;;;;;5052841;28;20017;-75
2023/08/05 01:41:18;;;;;;;13.00;4.60;;;16.50;62.40;;;;;;5053614;28;20028;-78
2023/08/05 01:43:45;;;;;;;12.05;4.35;;;16.60;62.30;;;;;;5054666;28;20434;-77
2023/08/05 01:46:13;;;;;;;11.82;4.13;;;16.60;62.20;;;;;;5054846;28;20028;-77
2023/08/05 01:48:41;;;;;;;9.48;4.38;;;16.60;61.90;;;;;;5053346;28;20391;-77
2023/08/05 01:51:08;;;;;;;7.10;3.65;;;16.60;62.10;;;;;;5053605;28;20036;-76
2023/08/05 01:53:36;;;;;;;8.57;4.53;;;16.60;62.30;;;;;;5050561;28;20025;-76
2023/08/05 01:56:03;;;;;;;7.43;4.03;;;16.70;62.20;;;;;;5052718;28;20515;-76
2023/08/05 01:58:31;;;;;;;8.65;4.05;;;16.70;62.20;;;;;;5051530;28;20105;-75
2023/08/05 02:00:58;;;;;;;6.30;3.65;;;16.70;62.00;;;;;;5053574;28;20085;-77
2023/08/05 02:03:25;;;;;;;12.27;4.25;;;16.70;62.00;;;;;;5049810;28;20487;-76
2023/08/05 02:05:53;;;;;;;5.18;3.38;;;16.70;61.60;;;;;;5051653;28;20044;-77
2023/08/05 02:08:20;;;;;;;4.90;3.25;;;16.80;61.60;;;;;;5050617;28;20391;-76
2023/08/05 02:10:48;;;;;;;6.30;3.67;;;16.80;61.70;;;;;;5052590;28;20036;-77
2023/08/05 02:13:16;;;;;;;5.57;3.55;;;16.80;61.70;;;;;;5051187;28;20023;-87
2023/08/05 02:15:43;;;;;;;7.63;4.38;;;16.80;61.70;;;;;;5050086;28;20025;-76
2023/08/05 02:18:11;;;;;;;8.70;4.43;;;16.90;61.40;;;;;;5051968;28;20040;-77
2023/08/05 02:20:38;;;;;;;7.57;3.97;;;16.90;61.50;;;;;;5058305;28;20474;-78
2023/08/05 02:23:05;;;;;;;4.47;3.42;;;16.90;61.50;;;;;;5048912;28;20126;-76
2023/08/05 02:25:33;;;;;;;5.22;3.47;;;16.90;61.60;;;;;;5053190;28;20463;-81
2023/08/05 02:28:01;;;;;;;6.20;3.47;;;16.90;61.40;;;;;;5056144;28;20364;-77
2023/08/05 02:30:29;;;;;;;9.15;3.70;;;17.00;61.30;;;;;;5051789;28;20041;-77
2023/08/05 02:32:56;;;;;;;4.85;3.58;;;17.00;61.20;;;;;;5053097;28;20017;-77
2023/08/05 02:35:23;;;;;;;6.15;3.05;;;17.00;61.10;;;;;;5052522;28;20032;-77
2023/08/05 02:37:51;;;;;;;7.07;3.90;;;17.00;61.10;;;;;;5062696;28;20025;-77
2023/08/05 02:40:18;;;;;;;7.43;3.28;;;17.00;61.20;;;;;;5073092;28;20028;-78
2023/08/05 02:42:46;;;;;;;9.80;4.47;;;17.00;61.20;;;;;;5053574;28;20025;-78
2023/08/05 02:45:13;;;;;;;9.40;3.45;;;17.00;61.10;;;;;;5052906;28;20033;-77
2023/08/05 02:47:40;;;;;;;6.10;3.38;;;17.10;61.10;;;;;;5055350;28;20017;-77
2023/08/05 02:50:09;;;;;;;5.40;3.17;;;17.10;61.20;;;;;;5053861;28;20035;-76
2023/08/05 02:52:37;;;;;;;5.22;3.10;;;17.10;61.30;;;;;;5053893;28;20082;-77
2023/08/05 02:55:05;;;;;;;6.28;3.60;;;17.10;61.40;;;;;;5054578;28;20049;-78
2023/08/05 02:57:32;;;;;;;6.00;3.20;;;17.10;61.60;;;;;;5056511;28;20029;-77
2023/08/05 03:00:00;;;;;;;7.70;4.07;;;17.10;61.80;;;;;;5054268;28;20456;-77
2023/08/05 03:02:28;;;;;;;7.15;3.67;;;17.10;62.00;;;;;;5052884;28;20021;-76
2023/08/05 03:04:55;;;;;;;5.22;3.30;;;17.10;62.30;;;;;;5051873;28;20060;-80
2023/08/05 03:07:23;;;;;;;5.25;3.50;;;17.10;62.50;;;;;;5055615;28;20018;-80
2023/08/05 03:09:50;;;;;;;6.72;3.40;;;17.10;62.60;;;;;;5047905;28;20032;-77
2023/08/05 03:12:17;;;;;;;7.57;3.58;;;17.10;62.90;;;;;;5054838;28;20052;-80
2023/08/05 03:14:46;;;;;;;4.80;2.90;;;17.10;63.10;;;;;;5052632;28;20394;-81
2023/08/05 03:17:13;;;;;;;8.23;3.90;;;17.10;63.20;;;;;;5055303;28;20112;-79
2023/08/05 03:19:41;;;;;;;6.70;3.30;;;17.10;63.20;;;;;;5052049;28;20075;-77
2023/08/05 03:22:11;;;;;;;7.07;3.80;;;17.20;63.20;;;;;;5054010;28;20025;-79
2023/08/05 03:24:38;;;;;;;8.60;3.67;;;17.20;63.30;;;;;;5054225;28;20399;-79
2023/08/05 03:27:06;;;;;;;6.63;3.65;;;17.20;63.20;;;;;;5053261;28;20071;-80
2023/08/05 03:29:33;;;;;;;8.27;4.25;;;17.20;62.80;;;;;;5053032;28;20036;-79
2023/08/05 03:32:00;;;;;;;8.13;4.78;;;17.20;62.20;;;;;;5035329;28;20029;-79
2023/08/05 03:34:29;;;;;;;8.32;4.38;;;17.30;61.60;;;;;;5054237;28;20017;-79
2023/08/05 03:36:57;;;;;;;10.07;4.07;;;17.30;61.60;;;;;;5057643;28;20028;-79
2023/08/05 03:39:24;;;;;;;11.32;4.55;;;17.30;61.50;;;;;;5049224;28;20024;-79
2023/08/05 03:41:51;;;;;;;7.55;4.07;;;17.30;61.20;;;;;;5054207;28;20490;-77
2023/08/05 03:44:19;;;;;;;6.20;4.22;;;17.40;60.70;;;;;;5058280;28;20020;-78
2023/08/05 03:46:46;;;;;;;5.78;4.00;;;17.40;60.40;;;;;;5065944;28;20043;-78
2023/08/05 03:49:14;;;;;;;4.97;3.33;;;17.40;60.40;;;;;;5050448;28;20029;-86
2023/08/05 03:51:42;;;;;;;10.55;4.57;;;17.50;60.50;;;;;;5054282;28;20035;-79
2023/08/05 03:54:09;;;;;;;6.15;3.80;;;17.40;60.60;;;;;;5049416;28;20384;-80
2023/08/05 03:56:37;;;;;;;11.68;4.18;;;17.50;60.40;;;;;;5052890;28;20071;-80
2023/08/05 03:59:05;;;;;;;7.30;3.88;;;17.40;60.50;;;;;;5050793;28;20036;-78
2023/08/05 04:01:34;;;;;;;4.95;3.20;;;17.50;60.50;;;;;;5061608;28;20032;-86
2023/08/05 04:04:05;;;;;;;3.35;2.60;;;17.40;60.50;;;;;;5072417;28;20025;-79
2023/08/05 04:06:33;;;;;;;6.47;3.33;;;17.50;60.60;;;;;;5057860;28;20115;-79
2023/08/05 04:09:07;;;;;;;7.40;3.08;;;17.50;60.60;;;;;;5051049;28;20404;-89
2023/08/05 04:11:36;;;;;;;3.45;2.60;;;17.40;60.80;;;;;;5063268;28;20112;-79
2023/08/05 04:14:06;;;;;;;3.83;2.83;;;17.40;60.90;;;;;;5064672;28;20099;-79
2023/08/05 04:16:34;;;;;;;5.05;3.38;;;17.50;61.10;;;;;;5055652;28;20041;-81
2023/08/05 04:19:06;;;;;;;8.38;3.40;;;17.50;61.20;;;;;;5041319;28;20412;-89
2023/08/05 04:21:39;;;;;;;4.95;2.88;;;17.50;61.40;;;;;;5052804;28;20040;-79
2023/08/05 04:24:09;;;;;;;4.57;2.83;;;17.50;61.60;;;;;;5060517;28;20111;-81
2023/08/05 04:26:37;;;;;;;7.20;3.25;;;17.50;61.70;;;;;;5061152;28;20036;-87
2023/08/05 04:29:05;;;;;;;5.35;3.13;;;17.50;61.80;;;;;;5061523;28;20032;-78
2023/08/05 04:31:32;;;;;;;4.72;3.08;;;17.50;61.80;;;;;;5066085;28;20024;-79
2023/08/05 04:34:00;;;;;;;7.13;3.22;;;17.50;61.90;;;;;;5073092;28;20041;-79
2023/08/05 04:36:27;;;;;;;4.57;2.70;;;17.50;62.20;;;;;;5054421;28;20037;-79
2023/08/05 04:38:56;;;;;;;5.28;3.22;;;17.50;62.30;;;;;;5071853;28;20065;-78
2023/08/05 04:41:23;;;;;;;11.13;3.40;;;17.50;62.50;;;;;;5075751;28;20051;-79
2023/08/05 04:43:51;;;;;;;7.28;4.10;;;17.50;62.60;;;;;;5054017;28;20028;-79
2023/08/05 04:46:18;;;;;;;7.80;3.50;;;17.50;62.60;;;;;;5056608;28;20048;-79
2023/08/05 04:48:45;;;;;;;8.50;3.45;;;17.50;62.80;;;;;;5054836;28;20492;-78
2023/08/05 04:51:13;;;;;;;7.15;3.70;;;17.50;62.90;;;;;;5055126;28;20028;-80
2023/08/05 04:53:40;;;;;;;6.45;3.38;;;17.50;63.00;;;;;;5054091;28;20357;-81
2023/08/05 04:56:07;;;;;;;7.50;4.47;;;17.50;63.40;;;;;;5054732;28;20028;-88
2023/08/05 04:58:35;;;;;;;9.50;3.85;;;17.50;63.50;;;;;;5065435;28;20035;-79
2023/08/05 05:01:02;;;;;;;4.57;3.45;;;17.50;63.80;;;;;;5074613;28;20069;-79
2023/08/05 05:03:30;;;;;;;10.00;4.85;;;17.50;63.90;;;;;;5062464;28;20028;-86
2023/08/05 05:05:57;;;;;;;10.80;4.70;;;17.50;64.40;;;;;;5053649;28;20744;-78
2023/08/05 05:08:24;;;;;;;10.23;4.68;;;17.50;64.80;;;;;;5059721;28;20036;-79
2023/08/05 05:10:52;;;;;;;5.80;3.47;;;17.40;65.10;;;;;;5061223;28;20148;-78
2023/08/05 05:13:19;;;;;;;5.93;3.63;;;17.40;65.80;;;;;;5050735;28;20032;-78
2023/08/05 05:15:48;;;;;;;17.00;4.38;;;17.40;65.70;;;;;;5053916;28;20055;-79
2023/08/05 05:18:15;;;;;;;7.70;4.15;;;17.50;66.10;;;;;;5053930;28;20045;-78
2023/08/05 05:20:42;;;;;;;10.18;5.13;;;17.50;66.30;;;;;;5051721;28;20033;-78
2023/08/05 05:23:10;;;;;;;7.85;5.13;;;17.50;66.70;;;;;;5055175;28;20021;-83
2023/08/05 05:25:37;;;;;;;7.68;4.75;;;17.50;67.10;;;;;;5069812;28;20103;-79
2023/08/05 05:28:07;;;;;;;7.70;4.75;;;17.40;67.40;;;;;;5054109;28;20049;-78
2023/08/05 05:30:38;;;;;;;8.20;5.22;;;17.50;67.80;;;;;;5053390;28;20029;-79
2023/08/05 05:33:05;;;;;;;9.18;4.50;;;17.50;68.10;;;;;;5052932;28;20049;-78
2023/08/05 05:35:33;;;;;;;4.30;3.30;;;17.40;68.40;;;;;;5050759;28;20420;-79
2023/08/05 05:38:00;;;;;;;7.25;3.85;;;17.40;68.40;;;;;;5053180;28;20040;-83
2023/08/05 05:40:27;;;;;;;5.05;3.47;;;17.30;68.40;;;;;;5053088;28;20036;-79
2023/08/05 05:42:55;;;;;;;6.05;3.40;;;17.30;68.20;;;;;;5051919;28;20032;-78
2023/08/05 05:45:22;;;;;;;9.55;5.00;;;17.40;68.50;;;;;;5051724;28;20391;-79
2023/08/05 05:47:50;;;;;;;7.82;4.38;;;17.30;68.60;;;;;;5052049;28;20108;-79
2023/08/05 05:50:19;;;;;;;8.07;4.45;;;17.30;68.80;;;;;;5052771;28;20388;-85
2023/08/05 05:52:48;;;;;;;9.27;4.90;;;17.30;68.70;;;;;;5052140;28;20650;-79
2023/08/05 05:55:16;;;;;;;9.38;5.00;;;17.30;68.70;;;;;;5053764;28;20092;-78
2023/08/05 05:57:44;;;;;;;6.93;4.43;;;17.30;69.00;;;;;;5053543;28;20056;-82
2023/08/05 06:00:12;;;;;;;6.40;3.55;;;17.30;69.30;;;;;;5053380;28;20376;-78
2023/08/05 06:02:39;;;;;;;3.75;2.90;;;17.40;69.00;;;;;;5052347;28;20033;-78
2023/08/05 06:05:09;;;;;;;3.70;3.05;;;17.40;68.90;;;;;;5053436;28;20037;-77
2023/08/05 06:07:36;;;;;;;7.85;3.33;;;17.30;68.70;;;;;;5050872;28;20036;-77
2023/08/05 06:10:04;;;;;;;6.72;3.30;;;17.30;68.60;;;;;;5051470;28;20107;-77
2023/08/05 06:12:36;;;;;;;5.30;3.33;;;17.30;68.50;;;;;;5051539;28;20027;-78
2023/08/05 06:15:05;;;;;;;5.43;3.33;;;17.30;68.40;;;;;;5051023;28;20017;-76
2023/08/05 06:17:33;;;;;;;7.65;5.22;;;17.30;68.30;;;;;;5050317;28;20516;-78
2023/08/05 06:20:00;;;;;;;6.40;4.32;;;17.30;68.50;;;;;;5050512;28;20051;-77
2023/08/05 06:22:27;;;;;;;7.07;4.07;;;17.30;68.60;;;;;;5051990;28;20028;-76
2023/08/05 06:24:55;;;;;;;4.97;3.58;;;17.20;68.80;;;;;;5052304;28;20070;-78
2023/08/05 06:27:22;;;;;;;5.60;4.25;;;17.20;68.80;;;;;;5053195;28;20110;-78
2023/08/05 06:29:49;;;;;;;8.48;4.55;;;17.20;69.00;;;;;;5052911;28;20166;-77
2023/08/05 06:32:17;;;;;;;9.45;4.70;;;17.20;69.20;;;;;;5041213;28;20439;-79
2023/08/05 06:34:44;;;;;;;4.13;3.22;;;17.20;69.40;;;;;;5032943;28;20025;-82
2023/08/05 06:37:12;;;;;;;6.82;3.47;;;17.20;69.50;;;;;;5032868;28;20025;-78
2023/08/05 06:39:39;;;;;;;6.13;3.50;;;17.20;69.20;;;;;;5032743;28;20041;-78
2023/08/05 06:42:07;;;;;;;6.50;3.72;;;17.20;69.30;;;;;;5048127;28;20111;-78
2023/08/05 06:44:37;;;;;;;11.68;4.80;;;17.20;69.60;;;;;;5052665;28;20163;-78
2023/08/05 06:47:05;;;;;;;7.07;4.38;;;17.20;69.80;;;;;;5051200;28;20619;-79
2023/08/05 06:49:34;;;;;;;5.88;3.60;;;17.20;69.90;;;;;;5052408;28;20032;-78
2023/08/05 06:52:02;;;;;;;9.18;4.63;;;17.20;69.80;;;;;;5052553;28;20104;-76
2023/08/05 06:54:29;;;;;;;6.18;4.60;;;17.20;70.10;;;;;;5051323;28;20052;-76
2023/08/05 06:56:57;;;;;;;8.45;5.60;;;17.20;70.20;;;;;;5052470;28;20036;-76
2023/08/05 06:59:25;;;;;;;6.53;3.92;;;17.20;70.40;;;;;;5052365;28;20114;-76
2023/08/05 07:01:52;;;;;;;12.05;4.70;;;17.10;70.60;;;;;;5050228;28;20107;-78
2023/08/05 07:04:19;;;;;;;6.18;4.80;;;17.10;70.80;;;;;;5055621;28;20607;-77
2023/08/05 07:06:47;;;;;;;6.15;3.95;;;17.10;71.00;;;;;;5072702;28;20471;-77
2023/08/05 07:09:14;;;;;;;8.20;5.07;;;17.10;70.80;;;;;;5069742;28;20052;-77
2023/08/05 07:11:42;;;;;;;7.72;4.95;;;17.10;71.20;;;;;;5048234;28;20033;-76
2023/08/05 07:14:09;;;;;;;7.85;4.68;;;17.00;71.20;;;;;;5043411;28;20021;-77
2023/08/05 07:16:36;;;;;;;9.85;4.88;;;17.00;71.40;;;;;;5052161;28;20037;-77
2023/08/05 07:19:04;;;;;;;7.50;4.38;;;17.00;71.60;;;;;;5052448;28;20407;-75
2023/08/05 07:21:31;;;;;;;9.88;5.10;;;17.00;71.70;;;;;;5051540;28;20028;-79
2023/08/05 07:23:58;;;;;;;7.57;5.20;;;17.00;71.90;;;;;;5052161;28;20032;-76
2023/08/05 07:26:26;;;;;;;12.15;6.78;;;17.00;72.00;;;;;;5051069;28;20044;-83
2023/08/05 07:28:53;;;;;;;7.70;5.13;;;16.90;72.00;;;;;;5051379;28;20021;-77
2023/08/05 07:31:20;;;;;;;7.80;4.80;;;16.80;72.00;;;;;;5052200;28;20104;-77
2023/08/05 07:33:48;;;;;;;10.35;6.28;;;16.80;72.10;;;;;;5052032;28;20014;-77
2023/08/05 07:36:16;;;;;;;11.15;5.82;;;16.90;72.30;;;;;;5054422;28;20021;-80
2023/08/05 07:38:47;;;;;;;11.38;5.47;;;16.80;72.40;;;;;;5055156;28;20063;-79
2023/08/05 07:41:16;;;;;;;8.18;5.50;;;16.80;72.30;;;;;;5055423;28;20025;-78
2023/08/05 07:43:47;;;;;;;12.15;6.45;;;16.80;72.30;;;;;;5055802;28;20028;-78
2023/08/05 07:46:16;;;;;;;9.43;4.93;;;16.70;72.50;;;;;;5055677;28;20082;-77
2023/08/05 07:48:46;;;;;;;9.05;6.25;;;16.70;72.50;;;;;;5055860;28;20021;-78
2023/08/05 07:51:14;;;;;;;6.15;4.32;;;16.70;72.50;;;;;;5055479;28;20074;-77
2023/08/05 07:53:42;;;;;;;7.45;4.15;;;16.70;72.60;;;;;;5055825;28;20017;-77
2023/08/05 07:56:13;;;;;;;8.93;4.30;;;16.70;72.60;;;;;;5054660;28;20104;-77
2023/08/05 07:58:48;;;;;;;7.10;4.05;;;16.70;72.40;;;;;;5055702;28;20028;-77
2023/08/05 08:01:22;;;;;;;6.63;4.68;;;16.70;72.50;;;;;;5054382;28;20040;-76
2023/08/05 08:03:53;;;;;;;6.22;4.05;;;16.70;72.70;;;;;;5054119;28;20495;-77
2023/08/05 08:06:22;;;;;;;6.72;4.38;;;16.70;72.60;;;;;;5054867;28;20483;-80
2023/08/05 08:08:49;;;;;;;7.35;4.07;;;16.70;72.60;;;;;;5049120;28;20025;-77
2023/08/05 08:11:17;;;;;;;7.57;3.83;;;16.70;72.70;;;;;;5054260;28;20100;-78
2023/08/05 08:13:44;;;;;;;6.97;4.40;;;16.70;72.40;;;;;;5052371;28;20052;-77
2023/08/05 08:16:13;;;;;;;9.82;5.50;;;16.70;72.60;;;;;;5054177;28;20498;-79
2023/08/05 08:18:41;;;;;;;8.05;5.35;;;16.70;72.60;;;;;;5054823;28;20077;-77
2023/08/05 08:21:08;;;;;;;10.77;4.82;;;16.60;72.50;;;;;;5055050;28;20021;-75
2023/08/05 08:23:36;;;;;;;12.25;4.78;;;16.60;72.60;;;;;;5049795;28;20037;-79
2023/08/05 08:26:03;;;;;;;7.45;4.47;;;16.60;72.90;;;;;;5054752;28;20508;-77
2023/08/05 08:28:31;;;;;;;8.90;4.75;;;16.50;72.70;;;;;;5066409;28;20017;-77
2023/08/05 08:30:59;;;;;;;7.53;4.78;;;16.50;72.90;;;;;;5051621;28;20029;-77
2023/08/05 08:33:28;;;;;;;10.05;4.80;;;16.50;73.10;;;;;;5054831;28;20021;-79
2023/08/05 08:35:55;;;;;;;10.40;5.53;;;16.50;73.10;;;;;;5055697;28;20035;-78
2023/08/05 08:38:22;;;;;;;8.82;4.60;;;16.40;73.20;;;;;;5054659;28;20141;-77
2023/08/05 08:41:03;;;;;;;6.50;5.03;;;16.50;73.30;;;;;;5060509;28;20021;-80
2023/08/05 08:43:32;;;;;;;8.32;4.82;;;16.40;73.20;;;;;;5063885;28;20039;-77
2023/08/05 08:45:59;;;;;;;9.90;5.10;;;16.40;73.30;;;;;;5062119;28;20068;-77
2023/08/05 08:48:29;;;;;;;10.50;4.80;;;16.50;73.30;;;;;;5064656;28;20031;-77
2023/08/05 08:50:58;;;;;;;7.35;4.50;;;16.40;73.40;;;;;;5061450;28;20024;-77
2023/08/05 08:53:26;;;;;;;6.30;4.40;;;16.30;73.40;;;;;;5054449;28;20107;-77
2023/08/05 08:55:54;;;;;;;6.40;3.92;;;16.30;73.70;;;;;;5052045;28;20106;-80
2023/08/05 08:58:22;;;;;;;7.55;4.72;;;16.30;73.60;;;;;;5055317;28;20082;-78
2023/08/05 09:00:50;;;;;;;7.10;5.18;;;16.30;73.60;;;;;;5067453;28;20542;-86
2023/08/05 09:03:23;;;;;;;7.13;4.55;;;16.30;73.50;;;;;;5066348;28;20025;-76
2023/08/05 09:05:58;;;;;;;5.90;3.83;;;16.30;73.60;;;;;;5065856;28;20035;-77
2023/08/05 09:08:25;;;;;;;6.00;3.73;;;16.30;73.40;;;;;;5063918;28;20033;-77
2023/08/05 09:10:53;;;;;;;4.93;3.88;;;16.30;73.30;;;;;;5060813;28;20285;-81
2023/08/05 09:13:21;;;;;;;7.32;4.85;;;16.30;73.30;;;;;;5051891;28;20021;-78
2023/08/05 09:15:49;;;;;;;8.57;6.18;;;16.30;73.30;;;;;;5058712;28;20039;-77
2023/08/05 09:18:16;;;;;;;8.35;5.65;;;16.30;73.40;;;;;;5054361;28;20086;-77
2023/08/05 09:20:44;;;;;;;10.50;4.75;;;16.30;73.40;;;;;;5052820;28;20020;-83
2023/08/05 09:23:12;;;;;;;6.95;4.40;;;16.40;73.60;;;;;;5052583;28;20028;-76
2023/08/05 09:25:46;;;;;;;8.05;4.80;;;16.40;73.80;;;;;;5060158;28;20044;-77
2023/08/05 09:28:14;;;;;;;7.03;4.00;;;16.40;73.90;;;;;;5074370;28;20371;-78
2023/08/05 09:30:41;;;;;;;9.25;5.10;;;16.40;74.00;;;;;;5053571;28;20025;-78
2023/08/05 09:33:09;;;;;;;7.75;5.07;;;16.30;74.00;;;;;;5053868;28;20059;-78
2023/08/05 09:35:36;;;;;;;10.55;5.97;;;16.40;74.20;;;;;;5050987;28;21699;-78
2023/08/05 09:38:10;;;;;;;7.30;4.88;;;16.30;74.30;;;;;;5063556;28;20017;-78
2023/08/05 09:40:41;;;;;;;6.97;3.92;;;16.30;74.40;;;;;;5059871;28;20180;-78
2023/08/05 09:43:09;;;;;;;11.13;4.20;;;16.30;74.50;;;;;;5056879;28;20029;-77
2023/08/05 09:45:37;;;;;;;6.93;4.22;;;16.30;74.70;;;;;;5066583;28;20403;-86
2023/08/05 09:48:10;;;;;;;10.10;4.65;;;16.30;74.60;;;;;;5050428;28;20052;-84
2023/08/05 09:50:40;;;;;;;11.57;5.28;;;16.40;74.60;;;;;;5061724;28;20032;-76
2023/08/05 09:53:10;;;;;;;10.23;6.55;;;16.30;74.60;;;;;;5054732;28;20383;-80
2023/08/05 09:55:38;;;;;;;10.38;5.70;;;16.30;74.70;;;;;;5061561;28;20025;-77
2023/08/05 09:58:08;;;;;;;8.63;5.45;;;16.30;74.90;;;;;;5052540;28;20028;-78
2023/08/05 10:00:43;;;;;;;6.85;4.95;;;16.30;75.00;;;;;;5062451;28;20063;-77
2023/08/05 10:03:13;;;;;;;11.57;4.90;;;16.30;74.90;;;;;;5072187;28;20021;-78
2023/08/05 10:05:45;;;;;;;8.68;5.88;;;16.30;75.00;;;;;;5072659;28;20036;-77
2023/08/05 10:08:16;;;;;;;16.40;8.43;;;16.40;75.10;;;;;;5069677;28;20502;-87
2023/08/05 10:10:44;;;;;;;11.30;6.25;;;16.30;75.30;;;;;;5051112;28;20468;-86
2023/08/05 10:13:17;;;;;;;9.70;5.93;;;16.30;75.50;;;;;;5061917;28;20025;-77
2023/08/05 10:15:49;;;;;;;19.60;12.15;;;16.40;75.30;;;;;;5064889;28;20511;-77
2023/08/05 10:18:18;;;;;;;28.88;16.48;;;16.40;75.30;;;;;;5059137;28;20037;-84
2023/08/05 10:20:55;;;;;;;19.63;11.20;;;16.40;75.40;;;;;;5051578;28;20074;-76
2023/08/05 10:23:25;;;;;;;13.23;8.27;;;16.40;75.40;;;;;;5054983;28;20027;-78
2023/08/05 10:26:01;;;;;;;14.40;6.70;;;16.30;75.50;;;;;;5068897;28;20032;-78
2023/08/05 10:28:34;;;;;;;12.50;6.50;;;16.40;76.20;;;;;;5060388;28;20039;-75
2023/08/05 10:31:25;;;;;;;12.85;6.60;;;16.40;76.00;;;;;;5055248;28;20048;-77
2023/08/05 10:34:12;;;;;;;13.38;6.22;;;16.40;76.00;;;;;;5048032;28;20084;-76
2023/08/05 10:36:50;;;;;;;7.40;4.22;;;16.40;76.20;;;;;;5050341;28;20024;-77
2023/08/05 10:39:48;;;;;;;12.15;5.03;;;16.40;76.20;;;;;;5049508;28;20426;-79
2023/08/05 10:42:28;;;;;;;11.65;4.60;;;16.40;76.30;;;;;;5049465;28;20129;-76
2023/08/05 10:44:58;;;;;;;9.68;3.67;;;16.40;76.40;;;;;;5050169;28;20118;-78
2023/08/05 10:47:25;;;;;;;7.47;3.10;;;16.50;76.80;;;;;;5048106;28;20113;-78
2023/08/05 10:50:03;;;;;;;13.48;4.57;;;16.50;76.70;;;;;;5052195;28;20108;-77
2023/08/05 10:52:30;;;;;;;10.90;3.15;;;16.50;76.90;;;;;;5040629;28;20029;-75
2023/08/05 10:54:59;;;;;;;11.02;2.30;;;16.50;76.90;;;;;;5050144;28;20115;-77
2023/08/05 10:57:35;;;;;;;10.48;2.80;;;16.50;77.10;;;;;;5053096;28;20471;-78
2023/08/05 11:00:06;;;;;;;9.68;2.80;;;16.50;77.50;;;;;;5053160;28;20108;-82
2023/08/05 11:02:34;;;;;;;11.05;2.38;;;16.50;77.50;;;;;;5052765;28;20069;-77
2023/08/05 11:05:09;;;;;;;13.10;2.40;;;16.60;77.80;;;;;;5053232;28;20484;-78
2023/08/05 11:07:40;;;;;;;9.75;2.60;;;16.60;78.10;;;;;;5064406;28;20033;-76
2023/08/05 11:10:09;;;;;;;11.27;3.42;;;16.60;78.70;;;;;;5049263;28;20039;-77
2023/08/05 11:12:40;;;;;;;13.40;3.92;;;16.60;78.50;;;;;;5051668;28;20506;-79
2023/08/05 11:15:09;;;;;;;11.98;4.18;;;16.60;78.70;;;;;;5051691;28;20064;-81
2023/08/05 11:17:54;;;;;;;10.40;2.60;;;16.60;78.90;;;;;;5051514;28;20056;-77
2023/08/05 11:20:29;;;;;;;9.95;2.70;;;16.60;79.40;;;;;;5053783;28;20429;-78
2023/08/05 11:22:57;;;;;;;16.65;4.38;;;16.60;79.80;;;;;;5053573;28;20029;-79
2023/08/05 11:25:24;;;;;;;14.75;2.60;;;16.60;80.20;;;;;;5060532;28;20487;-79
2023/08/05 11:27:53;;;;;;;19.85;3.63;;;16.50;80.30;;;;;;5055113;28;20457;-79
2023/08/05 11:30:21;;;;;;;18.83;4.95;;;16.50;80.30;;;;;;5067955;28;20017;-80
2023/08/05 11:32:53;;;;;;;16.20;3.58;;;16.50;81.30;;;;;;5061393;28;20056;-77
2023/08/05 11:35:21;;;;;;;15.55;3.60;;;16.30;81.60;;;;;;5044706;28;20559;-78
2023/08/05 11:37:48;;;;;;;14.32;3.03;;;16.20;82.00;;;;;;5051968;28;20021;-77
2023/08/05 11:40:16;;;;;;;16.95;4.07;;;16.10;82.10;;;;;;5049471;28;21774;-77
2023/08/05 11:42:44;;;;;;;19.67;4.50;;;16.00;82.40;;;;;;5056450;28;20387;-77
2023/08/05 11:45:16;;;;;;;15.82;3.33;;;16.00;82.60;;;;;;5057681;28;20044;-77
2023/08/05 11:47:43;;;;;;;19.60;4.68;;;16.00;82.70;;;;;;5054218;28;21293;-76
2023/08/05 11:50:12;;;;;;;9.55;2.47;;;15.90;82.90;;;;;;5052997;28;20040;-77
2023/08/05 11:52:40;;;;;;;17.55;3.25;;;15.80;83.10;;;;;;5053504;28;20128;-77
2023/08/05 11:55:09;;;;;;;18.95;4.25;;;15.80;83.10;;;;;;5053516;28;20025;-76
2023/08/05 11:57:37;;;;;;;17.15;3.70;;;15.80;83.20;;;;;;5055910;28;20539;-79
2023/08/05 12:00:13;;;;;;;16.60;3.75;;;15.80;83.40;;;;;;5053837;28;20218;-81
2023/08/05 12:02:40;;;;;;;;;;;15.80;84.00;;;;;;5061402;28;20032;-77
2023/08/05 12:05:08;;;;;;;14.27;3.05;;;15.70;83.80;;;;;;5055590;28;19912;-81
2023/08/05 12:07:41;;;;;;;8.02;2.60;;;15.80;83.90;;;;;;5053940;28;20059;-80
2023/08/05 12:10:09;;;;;;;10.73;2.78;;;15.70;84.20;;;;;;5053335;28;20027;-81
2023/08/05 12:12:38;;;;;;;13.15;3.13;;;15.70;84.40;;;;;;5075097;28;20024;-82
2023/08/05 12:15:12;;;;;;;14.88;3.10;;;15.70;84.50;;;;;;5062995;28;20501;-81
2023/08/05 12:17:45;;;;;;;9.27;2.40;;;15.70;84.70;;;;;;5062803;28;20531;-76
2023/08/05 12:20:19;;;;;;;17.60;3.78;;;15.70;84.80;;;;;;5055211;28;20029;-76
2023/08/05 12:22:48;;;;;;;13.40;2.83;;;15.70;85.30;;;;;;5053333;28;20024;-78
2023/08/05 12:25:16;;;;;;;17.35;2.83;;;15.60;85.50;;;;;;5054371;28;20049;-76
2023/08/05 12:27:44;;;;;;;21.55;2.90;;;15.60;85.50;;;;;;5055253;28;20076;-76
2023/08/05 12:30:14;;;;;;;21.90;9.90;;;15.60;85.60;;;;;;5052516;28;20051;-76
2023/08/05 12:32:42;;;;;;;17.00;5.75;;;15.60;85.80;;;;;;5053751;28;20051;-76
2023/08/05 12:35:10;;;;;;;17.35;5.30;;;15.60;85.70;;;;;;5064825;28;20112;-77
2023/08/05 12:37:39;;;;;;;14.27;3.35;;;15.60;85.80;;;;;;5051574;28;20449;-76
2023/08/05 12:40:09;;;;;;;20.00;3.08;;;15.60;85.80;;;;;;5054666;28;20455;-76
2023/08/05 12:42:36;;;;;;;20.92;4.13;;;15.50;85.80;;;;;;5054705;28;20028;-78
2023/08/05 12:45:05;;;;;;;15.27;3.50;;;15.50;85.90;;;;;;5052037;28;20430;-77
2023/08/05 12:47:33;;;;;;;16.60;3.13;;;15.50;86.00;;;;;;5053032;28;20032;-78
2023/08/05 12:50:01;;;;;;;16.90;3.90;;;15.50;86.10;;;;;;5064114;28;20411;-76
2023/08/05 12:52:29;;;;;;;18.35;3.13;;;15.50;86.20;;;;;;5064104;28;20025;-76